Time;durP1;ratioP1;P1;durP2;ratioP2;P2;SDS_P1;SDS_P2;PMS_P1;PMS_P2;Temp;Humidity;BMP_temperature;BMP_pressure;BME280_temperature;BME280_humidity;BME280_pressure;Samples;Min_cycle;Max_cycle;Signal;HPM_P1;HPM_P2
2023/12/26 00:01:12;;;;;;;1.75;0.43;;;;;;;10.24;100.00;100386.41;5044466;28;20041;-74
2023/12/26 00:03:37;;;;;;;1.77;0.70;;;;;;;10.31;100.00;100390.00;5038445;28;20037;-74
2023/12/26 00:06:03;;;;;;;1.75;0.60;;;;;;;10.27;100.00;100373.13;5034385;28;20083;-74
2023/12/26 00:08:28;;;;;;;1.65;0.65;;;;;;;10.32;100.00;100364.88;5042393;28;20028;-75
2023/12/26 00:10:54;;;;;;;1.25;0.55;;;;;;;10.35;100.00;100381.91;5044562;28;20412;-75
2023/12/26 00:13:19;;;;;;;1.05;0.55;;;;;;;10.38;100.00;100390.16;5045978;28;20020;-74
2023/12/26 00:15:45;;;;;;;1.77;0.60;;;;;;;10.43;100.00;100385.28;5035767;28;20037;-75
2023/12/26 00:18:10;;;;;;;0.80;0.75;;;;;;;10.44;100.00;100394.69;5041684;28;20017;-73
2023/12/26 00:20:39;;;;;;;1.05;0.60;;;;;;;10.40;100.00;100388.22;5035066;28;20041;-74
2023/12/26 00:23:05;;;;;;;0.50;0.40;;;;;;;10.39;100.00;100375.41;5038228;28;20025;-74
2023/12/26 00:25:31;;;;;;;0.60;0.38;;;;;;;10.32;100.00;100390.81;5038562;28;20037;-75
2023/12/26 00:27:56;;;;;;;1.25;0.60;;;;;;;10.36;100.00;100386.94;5037596;28;20279;-74
2023/12/26 00:30:22;;;;;;;1.15;0.45;;;;;;;10.31;100.00;100378.84;5033992;28;20423;-74
2023/12/26 00:32:47;;;;;;;2.00;0.32;;;;;;;10.31;100.00;100377.03;5033459;28;20047;-74
2023/12/26 00:35:13;;;;;;;2.85;0.60;;;;;;;10.26;100.00;100387.06;5030645;28;20045;-74
2023/12/26 00:37:40;;;;;;;3.30;0.50;;;;;;;10.18;100.00;100371.53;5022963;28;20620;-75
2023/12/26 00:40:07;;;;;;;1.77;0.70;;;;;;;10.25;100.00;100369.91;5018011;28;20041;-74
2023/12/26 00:42:32;;;;;;;1.02;0.40;;;;;;;10.21;100.00;100373.81;5030432;28;20096;-74
2023/12/26 00:44:58;;;;;;;0.57;0.50;;;;;;;10.21;100.00;100366.03;5011464;28;20125;-74
2023/12/26 00:47:24;;;;;;;0.88;0.60;;;;;;;10.15;100.00;100361.47;5040692;28;20439;-74
2023/12/26 00:49:49;;;;;;;1.13;0.55;;;;;;;10.13;100.00;100361.66;5030170;28;20389;-74
2023/12/26 00:52:14;;;;;;;1.58;0.60;;;;;;;10.19;100.00;100377.50;5035949;28;20043;-75
2023/12/26 00:54:40;;;;;;;0.77;0.55;;;;;;;10.14;100.00;100376.22;5038084;28;20041;-73
2023/12/26 00:57:05;;;;;;;2.80;0.50;;;;;;;10.11;100.00;100361.03;5037217;28;20045;-74
2023/12/26 00:59:31;;;;;;;2.83;0.55;;;;;;;10.11;100.00;100353.25;5030675;28;20527;-74
2023/12/26 01:02:01;;;;;;;1.00;0.47;;;;;;;10.11;100.00;100353.25;5029370;28;20726;-74
2023/12/26 01:04:26;;;;;;;1.10;0.43;;;;;;;10.11;100.00;100355.00;5034881;28;20049;-73
2023/12/26 01:06:52;;;;;;;0.77;0.57;;;;;;;10.13;100.00;100359.06;5033401;28;20044;-74
2023/12/26 01:09:17;;;;;;;1.02;0.50;;;;;;;10.04;100.00;100354.03;5034964;28;20037;-74
2023/12/26 01:11:43;;;;;;;1.00;0.50;;;;;;;10.03;100.00;100355.03;5039095;28;20037;-74
2023/12/26 01:14:08;;;;;;;0.52;0.47;;;;;;;9.98;100.00;100357.28;5038936;28;20032;-73
2023/12/26 01:16:34;;;;;;;1.50;0.50;;;;;;;9.90;100.00;100358.91;5036226;28;20037;-74
2023/12/26 01:18:59;;;;;;;0.52;0.40;;;;;;;9.93;100.00;100373.31;5031956;28;20040;-74
2023/12/26 01:21:25;;;;;;;0.75;0.57;;;;;;;9.90;100.00;100371.06;5016686;28;20056;-74
2023/12/26 01:23:52;;;;;;;0.90;0.60;;;;;;;9.72;100.00;100366.03;5039773;28;20024;-74
2023/12/26 01:26:18;;;;;;;0.85;0.50;;;;;;;9.61;100.00;100354.22;5039653;28;20043;-74
2023/12/26 01:28:44;;;;;;;1.60;0.60;;;;;;;9.60;100.00;100362.13;5038182;28;20124;-75
2023/12/26 01:31:09;;;;;;;1.20;0.75;;;;;;;9.52;100.00;100376.69;5034463;28;20396;-74
2023/12/26 01:33:36;;;;;;;1.55;0.90;;;;;;;9.51;100.00;100380.25;5038660;28;20040;-75
2023/12/26 01:36:02;;;;;;;1.58;0.55;;;;;;;9.48;100.00;100375.38;5027862;28;20034;-74
2023/12/26 01:38:27;;;;;;;2.10;0.70;;;;;;;9.43;100.00;100376.81;5034932;28;20434;-74
2023/12/26 01:40:53;;;;;;;1.73;0.85;;;;;;;9.38;100.00;100385.06;5022714;28;20045;-74
2023/12/26 01:43:18;;;;;;;1.48;0.80;;;;;;;9.44;100.00;100384.44;5028328;28;20499;-74
2023/12/26 01:45:45;;;;;;;1.42;0.68;;;;;;;9.40;100.00;100393.50;5041315;28;20412;-74
2023/12/26 01:48:11;;;;;;;4.72;1.50;;;;;;;9.42;100.00;100385.53;5037475;28;20030;-76
2023/12/26 01:50:37;;;;;;;1.63;0.70;;;;;;;9.29;100.00;100388.59;5020498;28;20033;-75
2023/12/26 01:53:03;;;;;;;3.20;0.50;;;;;;;9.25;100.00;100389.88;5043011;28;20058;-75
2023/12/26 01:55:30;;;;;;;4.85;0.77;;;;;;;9.25;100.00;100403.63;5034609;28;20061;-75
2023/12/26 01:57:57;;;;;;;2.45;0.63;;;;;;;9.30;100.00;100398.78;5037526;28;20171;-76
2023/12/26 02:00:23;;;;;;;3.95;0.73;;;;;;;9.28;100.00;100399.91;5022499;28;20048;-75
2023/12/26 02:02:50;;;;;;;1.88;1.13;;;;;;;9.24;100.00;100404.59;5036993;28;20029;-75
2023/12/26 02:05:16;;;;;;;0.60;0.50;;;;;;;9.31;100.00;100403.00;5039509;28;20033;-75
2023/12/26 02:07:41;;;;;;;1.35;1.00;;;;;;;9.22;100.00;100406.50;5028546;28;20036;-74
2023/12/26 02:10:07;;;;;;;0.80;0.63;;;;;;;9.15;100.00;100408.94;5033959;28;20040;-75
2023/12/26 02:12:33;;;;;;;1.25;0.70;;;;;;;9.22;100.00;100410.88;5043452;28;20037;-74
2023/12/26 02:14:59;;;;;;;3.00;0.50;;;;;;;9.16;100.00;100410.53;5040740;28;20036;-75
2023/12/26 02:17:25;;;;;;;1.98;0.70;;;;;;;9.16;100.00;100410.53;5040105;28;20117;-76
2023/12/26 02:19:51;;;;;;;2.25;1.40;;;;;;;9.13;100.00;100418.59;5039290;28;20109;-74
2023/12/26 02:22:17;;;;;;;3.45;0.60;;;;;;;9.15;100.00;100421.88;5038934;28;20120;-74
2023/12/26 02:24:44;;;;;;;4.85;0.80;;;;;;;9.15;100.00;100429.63;5025826;28;20511;-76
2023/12/26 02:27:38;;;;;;;4.32;1.95;;;;;;;9.14;100.00;100409.88;5028512;28;20044;-79
2023/12/26 02:30:07;;;;;;;1.38;0.75;;;;;;;9.15;100.00;100415.88;5028943;28;20038;-76
2023/12/26 02:32:35;;;;;;;3.33;0.52;;;;;;;9.12;100.00;100417.00;5054452;28;20026;-75
2023/12/26 02:35:02;;;;;;;2.15;0.43;;;;;;;9.13;100.00;100422.97;5041423;28;20033;-75
2023/12/26 02:37:29;;;;;;;1.55;1.10;;;;;;;9.14;100.00;100422.03;5039837;28;20038;-75
2023/12/26 02:39:55;;;;;;;1.00;0.68;;;;;;;9.14;100.00;100415.06;5039129;28;20033;-75
2023/12/26 02:42:22;;;;;;;2.22;0.77;;;;;;;9.12;100.00;100424.75;5037340;28;20052;-75
2023/12/26 02:44:47;;;;;;;3.53;0.68;;;;;;;9.16;100.00;100428.66;5024128;28;20045;-77
2023/12/26 02:47:14;;;;;;;2.22;0.93;;;;;;;9.15;100.00;100416.69;5035468;28;20030;-74
2023/12/26 02:49:39;;;;;;;0.70;0.60;;;;;;;9.15;100.00;100436.56;5026502;28;20038;-75
2023/12/26 02:52:05;;;;;;;0.85;0.70;;;;;;;9.10;100.00;100434.44;5031102;28;20145;-74
2023/12/26 02:54:30;;;;;;;1.05;0.60;;;;;;;9.10;100.00;100428.47;5042588;28;20045;-74
2023/12/26 02:56:56;;;;;;;4.15;0.93;;;;;;;9.12;100.00;100429.94;5037240;28;20032;-76
2023/12/26 02:59:22;;;;;;;1.58;0.70;;;;;;;9.14;100.00;100428.00;5042327;28;20036;-76
2023/12/26 03:01:48;;;;;;;3.40;0.80;;;;;;;9.06;100.00;100432.31;5034807;28;20036;-76
2023/12/26 03:04:14;;;;;;;4.07;1.00;;;;;;;9.09;100.00;100438.00;5041297;28;20031;-75
2023/12/26 03:06:39;;;;;;;4.03;1.00;;;;;;;9.06;100.00;100438.31;5045254;28;20630;-75
2023/12/26 03:09:05;;;;;;;2.47;1.10;;;;;;;9.13;100.00;100438.50;5022337;28;20105;-76
2023/12/26 03:11:31;;;;;;;2.05;0.90;;;;;;;9.11;100.00;100438.63;5038312;28;20511;-75
2023/12/26 03:13:58;;;;;;;2.58;1.00;;;;;;;9.14;100.00;100438.34;5040819;28;20029;-74
2023/12/26 03:16:23;;;;;;;1.80;1.08;;;;;;;9.11;100.00;100435.25;5041176;28;20087;-74
2023/12/26 03:18:49;;;;;;;2.95;1.27;;;;;;;9.19;100.00;100440.44;5030791;28;20029;-74
2023/12/26 03:21:14;;;;;;;3.95;1.30;;;;;;;9.20;100.00;100436.91;5038068;28;20674;-74
2023/12/26 03:23:40;;;;;;;3.47;1.00;;;;;;;9.21;100.00;100437.72;5042364;28;20037;-74
2023/12/26 03:26:07;;;;;;;1.55;1.25;;;;;;;9.06;100.00;100433.16;5039226;28;20511;-75
2023/12/26 03:28:32;;;;;;;2.42;0.90;;;;;;;9.04;100.00;100439.41;5043073;28;21246;-75
2023/12/26 03:30:58;;;;;;;2.92;1.13;;;;;;;9.15;100.00;100437.38;5039057;28;20041;-75
2023/12/26 03:33:23;;;;;;;5.45;1.20;;;;;;;9.15;100.00;100444.31;5042225;28;20037;-74
2023/12/26 03:35:49;;;;;;;6.22;1.10;;;;;;;9.06;100.00;100448.66;5039309;28;20489;-74
2023/12/26 03:38:15;;;;;;;7.90;1.10;;;;;;;9.12;100.00;100457.56;5039211;28;20119;-75
2023/12/26 03:40:41;;;;;;;6.00;1.08;;;;;;;9.20;100.00;100454.22;5026930;28;20045;-74
2023/12/26 03:43:06;;;;;;;7.78;1.10;;;;;;;9.11;100.00;100454.16;5038174;28;20534;-75
2023/12/26 03:45:31;;;;;;;4.78;1.20;;;;;;;9.14;100.00;100463.41;5039517;28;20033;-74
2023/12/26 03:47:57;;;;;;;5.68;1.00;;;;;;;9.14;100.00;100461.63;5040581;28;20106;-76
2023/12/26 03:50:22;;;;;;;6.15;1.88;;;;;;;9.11;100.00;100459.34;5044661;28;20055;-75
2023/12/26 03:52:48;;;;;;;5.53;1.20;;;;;;;9.15;100.00;100465.00;5043531;28;20028;-75
2023/12/26 03:55:14;;;;;;;4.20;1.00;;;;;;;9.06;100.00;100465.94;5036798;28;20146;-76
2023/12/26 03:57:41;;;;;;;4.18;1.15;;;;;;;9.16;100.00;100479.59;5038662;28;20531;-74
2023/12/26 04:00:08;;;;;;;4.18;0.80;;;;;;;9.09;100.00;100466.44;5023134;28;20037;-74
2023/12/26 04:02:40;;;;;;;3.53;1.20;;;;;;;9.14;100.00;100469.38;5041693;28;20068;-75
2023/12/26 04:05:07;;;;;;;3.72;0.88;;;;;;;9.18;100.00;100471.69;5039251;28;20045;-74
2023/12/26 04:07:33;;;;;;;6.40;1.00;;;;;;;9.08;100.00;100475.19;5038058;28;20407;-75
2023/12/26 04:09:58;;;;;;;2.95;0.75;;;;;;;9.06;100.00;100486.63;5034044;28;20048;-74
2023/12/26 04:12:24;;;;;;;4.38;1.00;;;;;;;9.00;100.00;100467.34;5041506;28;20538;-75
2023/12/26 04:14:50;;;;;;;7.13;1.08;;;;;;;9.06;100.00;100455.59;5036791;28;20038;-74
2023/12/26 04:17:16;;;;;;;2.30;0.82;;;;;;;9.08;100.00;100459.66;5042955;28;20499;-74
2023/12/26 04:19:42;;;;;;;4.90;0.88;;;;;;;9.06;100.00;100465.94;5022957;28;20065;-75
2023/12/26 04:22:09;;;;;;;2.95;0.80;;;;;;;9.09;100.00;100468.22;5037803;28;20500;-75
2023/12/26 04:24:35;;;;;;;6.30;1.17;;;;;;;9.15;100.00;100467.59;5052513;28;20040;-75
2023/12/26 04:27:01;;;;;;;3.67;0.88;;;;;;;9.23;100.00;100479.75;5043219;28;20029;-74
2023/12/26 04:29:27;;;;;;;4.05;0.98;;;;;;;9.11;100.00;100490.38;5041627;28;20049;-74
2023/12/26 04:31:52;;;;;;;4.88;1.05;;;;;;;9.14;100.00;100494.44;5037078;28;20443;-74
2023/12/26 04:34:18;;;;;;;2.30;0.80;;;;;;;9.12;100.00;100492.00;5037442;28;20032;-76
2023/12/26 04:36:44;;;;;;;4.55;1.17;;;;;;;9.09;100.00;100494.88;5024044;28;20029;-75
2023/12/26 04:39:10;;;;;;;4.40;1.55;;;;;;;9.13;100.00;100503.97;5047644;28;20037;-74
2023/12/26 04:41:35;;;;;;;1.95;0.88;;;;;;;9.10;100.00;100506.06;5035708;28;20048;-76
2023/12/26 04:44:01;;;;;;;3.08;0.90;;;;;;;9.13;100.00;100516.91;5043197;28;20037;-74
2023/12/26 04:46:27;;;;;;;1.55;0.70;;;;;;;9.11;100.00;100523.19;5038946;28;20040;-75
2023/12/26 04:48:53;;;;;;;2.90;0.85;;;;;;;9.13;100.00;100521.28;5028262;28;20033;-74
2023/12/26 04:51:19;;;;;;;2.78;1.15;;;;;;;9.15;100.00;100509.81;5039600;28;20033;-75
2023/12/26 04:53:47;;;;;;;3.47;0.90;;;;;;;9.09;100.00;100507.81;5028747;28;20025;-75
2023/12/26 04:56:17;;;;;;;1.80;0.80;;;;;;;9.11;100.00;100521.41;5037487;28;20044;-75
2023/12/26 04:58:46;;;;;;;4.32;1.15;;;;;;;9.06;100.00;100526.25;5043534;28;20021;-75
2023/12/26 05:01:12;;;;;;;1.73;0.95;;;;;;;9.04;100.00;100523.00;5022793;28;20568;-75
2023/12/26 05:03:37;;;;;;;4.38;1.10;;;;;;;9.10;100.00;100531.94;5038521;28;20025;-75
2023/12/26 05:06:04;;;;;;;5.53;1.33;;;;;;;9.15;100.00;100529.69;5038723;28;20037;-74
2023/12/26 05:08:30;;;;;;;7.93;1.10;;;;;;;9.15;100.00;100537.44;5039164;28;20030;-74
2023/12/26 05:10:56;;;;;;;2.55;1.23;;;;;;;9.07;100.00;100538.22;5044123;28;20406;-75
2023/12/26 05:13:22;;;;;;;2.78;1.00;;;;;;;9.14;100.00;100523.72;5042498;28;20025;-74
2023/12/26 05:15:49;;;;;;;4.80;1.60;;;;;;;9.22;100.00;100529.91;5041785;28;20030;-74
2023/12/26 05:18:14;;;;;;;4.72;1.20;;;;;;;9.18;100.00;100552.66;5041603;28;20021;-77
2023/12/26 05:20:40;;;;;;;2.47;1.08;;;;;;;9.20;100.00;100560.28;5026995;28;20037;-75
2023/12/26 05:23:05;;;;;;;7.90;2.15;;;;;;;9.21;100.00;100564.47;5039617;28;20054;-74
2023/12/26 05:25:31;;;;;;;5.25;1.30;;;;;;;9.18;100.00;100549.28;5038290;28;20041;-75
2023/12/26 05:27:56;;;;;;;4.82;1.30;;;;;;;9.14;100.00;100561.72;5025650;28;20021;-74
2023/12/26 05:30:22;;;;;;;3.13;1.10;;;;;;;9.16;100.00;100562.38;5022055;28;20049;-75
2023/12/26 05:32:48;;;;;;;2.72;1.20;;;;;;;9.16;100.00;100573.50;5041581;28;20028;-74
2023/12/26 05:35:15;;;;;;;5.25;1.33;;;;;;;9.23;100.00;100573.72;5038876;28;20037;-75
2023/12/26 05:37:41;;;;;;;4.90;1.20;;;;;;;9.16;100.00;100568.34;5035402;28;20541;-75
2023/12/26 05:40:07;;;;;;;3.22;1.08;;;;;;;9.09;100.00;100592.38;5042093;28;20084;-74
2023/12/26 05:42:32;;;;;;;4.50;1.00;;;;;;;9.20;100.00;100599.91;5041646;28;20535;-74
2023/12/26 05:44:58;;;;;;;5.13;1.35;;;;;;;9.20;100.00;100601.69;5039446;28;20033;-73
2023/12/26 05:47:23;;;;;;;3.97;1.20;;;;;;;9.13;100.00;100612.59;5022127;28;20020;-74
2023/12/26 05:49:49;;;;;;;3.85;1.90;;;;;;;9.12;100.00;100620.53;5058274;28;20036;-75
2023/12/26 05:52:15;;;;;;;4.03;1.27;;;;;;;9.15;100.00;100615.06;5043794;28;20629;-74
2023/12/26 05:54:40;;;;;;;4.55;1.40;;;;;;;9.22;100.00;100618.66;5036832;28;20029;-74
2023/12/26 05:57:06;;;;;;;5.40;1.52;;;;;;;9.12;100.00;100625.72;5039705;28;20032;-74
2023/12/26 05:59:31;;;;;;;6.63;1.70;;;;;;;9.17;100.00;100626.06;5022955;28;20588;-74
2023/12/26 06:01:57;;;;;;;4.68;1.38;;;;;;;9.07;100.00;100638.28;5024291;28;20018;-74
2023/12/26 06:04:22;;;;;;;8.38;1.70;;;;;;;9.07;100.00;100636.50;5022816;28;20484;-75
2023/12/26 06:06:48;;;;;;;11.45;1.77;;;;;;;9.07;100.00;100641.66;5039041;28;20033;-74
2023/12/26 06:09:16;;;;;;;4.57;1.48;;;;;;;9.11;100.00;100648.16;5024948;28;20025;-74
2023/12/26 06:11:42;;;;;;;4.10;1.60;;;;;;;9.00;100.00;100669.09;5040499;28;20461;-73
2023/12/26 06:14:07;;;;;;;8.70;1.83;;;;;;;9.07;100.00;100657.19;5045153;28;20036;-74
2023/12/26 06:16:33;;;;;;;4.30;2.17;;;;;;;9.13;100.00;100659.16;5035490;28;20040;-74
2023/12/26 06:18:58;;;;;;;10.27;1.45;;;;;;;9.13;100.00;100658.38;5035583;28;20041;-74
2023/12/26 06:21:24;;;;;;;4.97;1.92;;;;;;;9.03;100.00;100661.03;5042414;28;20131;-74
2023/12/26 06:23:50;;;;;;;9.25;2.17;;;;;;;8.97;100.00;100659.06;5041093;28;20070;-74
2023/12/26 06:26:17;;;;;;;6.20;1.90;;;;;;;9.01;100.00;100677.69;5042232;28;20032;-74
2023/12/26 06:28:42;;;;;;;5.18;1.65;;;;;;;8.95;100.00;100687.66;5041211;28;20025;-75
2023/12/26 06:31:13;;;;;;;8.38;1.58;;;;;;;9.01;100.00;100688.03;5044306;28;20044;-74
2023/12/26 06:33:39;;;;;;;5.80;1.75;;;;;;;9.08;100.00;100695.03;5027821;28;20025;-75
2023/12/26 06:36:04;;;;;;;9.57;1.88;;;;;;;9.04;100.00;100703.22;5040768;28;20066;-74
2023/12/26 06:38:30;;;;;;;3.60;1.73;;;;;;;9.09;100.00;100707.00;5040682;28;20029;-75
2023/12/26 06:40:56;;;;;;;8.40;2.80;;;;;;;9.13;100.00;100720.47;5038583;28;20044;-75
2023/12/26 06:43:22;;;;;;;7.07;1.90;;;;;;;9.06;100.00;100709.06;5037793;28;20026;-74
2023/12/26 06:45:47;;;;;;;7.72;1.98;;;;;;;9.05;100.00;100716.03;5029203;28;20033;-75
2023/12/26 06:48:12;;;;;;;7.57;2.08;;;;;;;8.94;100.00;100722.22;5039829;28;20072;-74
2023/12/26 06:50:38;;;;;;;8.98;1.83;;;;;;;8.97;100.00;100721.13;5038312;28;20107;-74
2023/12/26 06:53:03;;;;;;;6.40;1.90;;;;;;;9.07;100.00;100732.22;5058901;28;20340;-75
2023/12/26 06:55:29;;;;;;;8.20;2.05;;;;;;;9.00;100.00;100723.41;5040511;28;20033;-74
2023/12/26 06:57:55;;;;;;;10.25;2.15;;;;;;;9.14;100.00;100742.78;5028265;28;20025;-74
2023/12/26 07:00:21;;;;;;;9.80;2.00;;;;;;;9.07;100.00;100746.91;5036336;28;20106;-75
2023/12/26 07:02:47;;;;;;;10.07;2.10;;;;;;;9.11;100.00;100745.66;5037037;28;20047;-74
2023/12/26 07:05:13;;;;;;;6.40;1.52;;;;;;;9.11;100.00;100741.28;5025257;28;20033;-74
2023/12/26 07:07:38;;;;;;;6.45;1.52;;;;;;;9.01;100.00;100744.94;5044761;28;20048;-74
2023/12/26 07:10:04;;;;;;;11.32;1.52;;;;;;;9.09;100.00;100750.16;5041338;28;20510;-75
2023/12/26 07:12:29;;;;;;;10.05;2.83;;;;;;;9.05;100.00;100756.59;5044321;28;20183;-74
2023/12/26 07:14:55;;;;;;;11.80;1.75;;;;;;;9.01;100.00;100761.25;5036067;28;20053;-74
2023/12/26 07:17:20;;;;;;;7.35;1.50;;;;;;;8.99;100.00;100770.13;5039570;28;20029;-75
2023/12/26 07:19:45;;;;;;;6.35;1.60;;;;;;;8.86;100.00;100776.44;5038232;28;20038;-74
2023/12/26 07:22:11;;;;;;;6.90;1.02;;;;;;;8.95;100.00;100778.16;5041687;28;20529;-74
2023/12/26 07:24:36;;;;;;;5.47;1.30;;;;;;;8.86;100.00;100784.22;5038892;28;20365;-75
2023/12/26 07:27:02;;;;;;;8.50;2.13;;;;;;;8.96;100.00;100784.16;5034910;28;20438;-75
2023/12/26 07:29:28;;;;;;;8.23;1.50;;;;;;;8.94;100.00;100794.63;5044776;28;20029;-74
2023/12/26 07:31:54;;;;;;;13.52;1.30;;;;;;;8.86;100.00;100798.91;5027243;28;20054;-74
2023/12/26 07:34:20;;;;;;;7.18;1.63;;;;;;;8.87;100.00;100808.28;5043565;28;20098;-74
2023/12/26 07:36:45;;;;;;;5.82;1.00;;;;;;;8.87;100.00;100819.47;5038695;28;20033;-74
2023/12/26 07:39:11;;;;;;;17.15;6.75;;;;;;;8.85;100.00;100820.56;5033372;28;20037;-74
2023/12/26 07:41:36;;;;;;;8.48;1.25;;;;;;;8.81;100.00;100814.84;5038126;28;20037;-74
2023/12/26 07:44:02;;;;;;;10.00;1.67;;;;;;;8.85;100.00;100821.34;5029820;28;20063;-75
2023/12/26 07:46:27;;;;;;;7.68;1.77;;;;;;;8.85;100.00;100841.25;5038055;28;20086;-74
2023/12/26 07:48:53;;;;;;;6.10;1.10;;;;;;;8.82;100.00;100839.75;5040941;28;20468;-74
2023/12/26 07:51:18;;;;;;;10.07;1.35;;;;;;;8.75;100.00;100851.63;5038341;28;20049;-74
2023/12/26 07:53:44;;;;;;;7.25;1.17;;;;;;;8.88;100.00;100846.94;5039820;28;20045;-74
2023/12/26 07:56:10;;;;;;;6.25;1.00;;;;;;;8.74;100.00;100860.34;5036760;28;20030;-74
2023/12/26 07:58:36;;;;;;;10.32;1.23;;;;;;;8.81;100.00;100863.97;5040298;28;20017;-74
2023/12/26 08:01:02;;;;;;;7.13;1.27;;;;;;;8.88;100.00;100859.06;5026843;28;20415;-73
2023/12/26 08:03:27;;;;;;;7.82;1.20;;;;;;;8.75;100.00;100862.78;5050340;28;20040;-74
2023/12/26 08:05:53;;;;;;;12.18;1.80;;;;;;;8.82;100.00;100865.63;5043862;28;20029;-75
2023/12/26 08:08:18;;;;;;;10.05;1.42;;;;;;;8.85;100.00;100875.66;5045795;28;20106;-73
2023/12/26 08:10:47;;;;;;;6.20;1.48;;;;;;;8.83;100.00;100881.94;5047205;28;20045;-73
2023/12/26 08:13:13;;;;;;;10.98;1.75;;;;;;;8.74;100.00;100887.03;5040100;28;20040;-74
2023/12/26 08:15:38;;;;;;;8.38;2.17;;;;;;;8.74;100.00;100901.72;5040541;28;20049;-73
2023/12/26 08:18:05;;;;;;;10.65;2.08;;;;;;;8.69;100.00;100901.31;5041698;28;20025;-74
2023/12/26 08:20:33;;;;;;;8.68;1.33;;;;;;;8.73;100.00;100908.66;5042703;28;20531;-74
2023/12/26 08:22:59;;;;;;;3.47;0.90;;;;;;;8.74;100.00;100917.25;5040371;28;20037;-73
2023/12/26 08:25:24;;;;;;;11.82;1.83;;;;;;;8.69;100.00;100907.31;5042673;28;20052;-73
2023/12/26 08:27:50;;;;;;;13.35;2.13;;;;;;;8.62;100.00;100911.41;5045541;28;20037;-74
2023/12/26 08:30:16;;;;;;;7.88;1.33;;;;;;;8.72;100.00;100924.28;5036293;28;20033;-74
2023/12/26 08:32:41;;;;;;;3.88;1.00;;;;;;;8.70;100.00;100923.63;5039655;28;20040;-73
2023/12/26 08:35:07;;;;;;;6.70;1.13;;;;;;;8.72;100.00;100932.03;5030119;28;20044;-74
2023/12/26 08:37:32;;;;;;;4.80;1.02;;;;;;;8.67;100.00;100935.06;5039080;28;20099;-74
2023/12/26 08:39:58;;;;;;;5.07;1.65;;;;;;;8.60;100.00;100934.00;5038961;28;20041;-74
2023/12/26 08:42:23;;;;;;;8.90;0.90;;;;;;;8.61;100.00;100945.97;5047030;28;20076;-74
2023/12/26 08:44:49;;;;;;;8.05;1.25;;;;;;;8.58;100.00;100949.63;5046426;28;20045;-74
2023/12/26 08:47:14;;;;;;;7.15;0.98;;;;;;;8.65;100.00;100960.25;5038360;28;20048;-73
2023/12/26 08:49:40;;;;;;;7.18;0.85;;;;;;;8.57;100.00;100968.69;5040058;28;20041;-73
2023/12/26 08:52:05;;;;;;;9.35;1.05;;;;;;;8.59;100.00;100973.72;5045942;28;20044;-75
2023/12/26 08:54:31;;;;;;;6.97;1.15;;;;;;;8.49;100.00;100980.66;5036532;28;20059;-74
2023/12/26 08:56:56;;;;;;;16.17;1.48;;;;;;;8.58;100.00;100987.59;5040967;28;20523;-74
2023/12/26 08:59:22;;;;;;;11.50;2.45;;;;;;;8.57;100.00;100980.81;5040942;28;20037;-74
2023/12/26 09:01:47;;;;;;;7.60;1.55;;;;;;;8.52;100.00;100975.25;5044012;28;20041;-74
2023/12/26 09:04:13;;;;;;;12.18;2.15;;;;;;;8.53;100.00;100975.09;5039622;28;20037;-74
2023/12/26 09:06:38;;;;;;;10.05;1.08;;;;;;;8.49;100.00;100989.22;5043394;28;20037;-74
2023/12/26 09:09:04;;;;;;;7.88;1.30;;;;;;;8.49;100.00;100989.22;5042743;28;20032;-74
2023/12/26 09:11:29;;;;;;;15.18;1.67;;;;;;;8.58;100.00;100998.75;5042172;28;20092;-74
2023/12/26 09:13:55;;;;;;;4.75;0.90;;;;;;;8.65;100.00;100999.03;5042773;28;20476;-74
2023/12/26 09:16:20;;;;;;;5.68;1.40;;;;;;;8.58;100.00;100987.59;5038072;28;20041;-74
2023/12/26 09:18:47;;;;;;;8.35;1.42;;;;;;;8.59;100.00;100994.41;5041687;28;20029;-74
2023/12/26 09:21:13;;;;;;;8.52;1.20;;;;;;;8.63;100.00;100989.78;5039959;28;20045;-74
2023/12/26 09:23:39;;;;;;;6.78;1.10;;;;;;;8.59;100.00;100999.59;5038725;28;20064;-75
2023/12/26 09:26:05;;;;;;;8.05;1.25;;;;;;;8.56;100.00;101005.81;5044060;28;20029;-74
2023/12/26 09:28:31;;;;;;;12.02;1.58;;;;;;;8.69;100.00;101004.72;5042947;28;20541;-74
2023/12/26 09:30:57;;;;;;;14.60;1.98;;;;;;;8.74;100.00;101018.88;5040989;28;20110;-73
2023/12/26 09:33:22;;;;;;;12.77;2.88;;;;;;;8.63;100.00;101023.41;5042443;28;20479;-74
2023/12/26 09:35:48;;;;;;;9.40;1.85;;;;;;;8.69;100.00;101036.56;5031130;28;20033;-74
2023/12/26 09:38:13;;;;;;;13.82;2.25;;;;;;;8.59;100.00;101035.78;5046990;28;20032;-74
2023/12/26 09:40:39;;;;;;;15.70;2.22;;;;;;;8.72;100.00;101028.53;5042265;28;20092;-74
2023/12/26 09:43:05;;;;;;;13.23;2.47;;;;;;;8.74;100.00;101033.59;5047015;28;20391;-74
2023/12/26 09:45:31;;;;;;;8.60;2.67;;;;;;;8.63;100.00;101025.97;5045196;28;20580;-74
2023/12/26 09:47:57;;;;;;;15.68;2.67;;;;;;;8.69;100.00;101046.91;5029430;28;20021;-74
2023/12/26 09:50:23;;;;;;;11.30;2.58;;;;;;;8.83;100.00;101047.44;5046044;28;20029;-74
2023/12/26 09:52:56;;;;;;;16.00;3.10;;;;;;;8.85;100.00;101054.09;5039340;28;20460;-74
2023/12/26 09:55:22;;;;;;;12.05;2.70;;;;;;;8.86;100.00;101062.69;5038503;28;20456;-73
2023/12/26 09:57:48;;;;;;;12.70;2.78;;;;;;;9.04;100.00;101070.53;5042202;28;20064;-75
2023/12/26 10:00:14;;;;;;;14.38;2.70;;;;;;;9.20;100.00;101075.16;5036321;28;20053;-75
2023/12/26 10:02:43;;;;;;;20.42;2.80;;;;;;;9.17;100.00;101078.81;5038243;28;20155;-74
2023/12/26 10:05:09;;;;;;;16.33;3.70;;;;;;;9.40;100.00;101079.31;5029765;28;20033;-74
2023/12/26 10:07:34;;;;;;;10.00;2.53;;;;;;;9.47;100.00;101098.47;5043653;28;20035;-75
2023/12/26 10:09:59;;;;;;;12.85;2.65;;;;;;;9.50;100.00;101094.81;5042441;28;20041;-73
2023/12/26 10:12:34;;;;;;;13.85;2.63;;;;;;;9.50;100.00;101098.19;5037794;28;20036;-74
2023/12/26 10:15:05;;;;;;;13.10;2.25;;;;;;;9.47;100.00;101095.88;5023817;28;20132;-73
2023/12/26 10:17:32;;;;;;;10.48;2.00;;;;;;;9.32;100.00;101100.72;5043225;28;20436;-73
2023/12/26 10:19:58;;;;;;;12.63;3.42;;;;;;;9.35;100.00;101108.19;5041727;28;20038;-73
2023/12/26 10:22:31;;;;;;;16.25;1.73;;;;;;;9.38;100.00;101117.47;5036476;28;20095;-73
2023/12/26 10:24:56;;;;;;;11.82;2.10;;;;;;;9.38;100.00;101114.03;5039084;28;20036;-74
2023/12/26 10:27:24;;;;;;;11.73;2.40;;;;;;;9.32;100.00;101113.66;5046060;28;20402;-74
2023/12/26 10:29:56;;;;;;;10.35;1.95;;;;;;;9.49;100.00;101111.28;5034519;28;20030;-73
2023/12/26 10:32:26;;;;;;;11.18;1.80;;;;;;;9.44;100.00;101111.72;5026176;28;20037;-74
2023/12/26 10:34:52;;;;;;;9.95;2.00;;;;;;;9.49;100.00;101117.28;5043886;28;20041;-74
2023/12/26 10:37:22;;;;;;;11.98;2.13;;;;;;;9.38;100.00;101130.41;5040545;28;20033;-73
2023/12/26 10:39:48;;;;;;;17.75;5.20;;;;;;;9.45;100.00;101141.81;5042322;28;20045;-73
2023/12/26 10:42:17;;;;;;;22.17;3.83;;;;;;;9.33;100.00;101143.75;5037739;28;20080;-73
2023/12/26 10:44:45;;;;;;;8.50;2.17;;;;;;;9.21;100.00;101137.13;5040324;28;20037;-73
2023/12/26 10:47:11;;;;;;;9.15;1.42;;;;;;;9.16;100.00;101139.28;5040997;28;20707;-74
2023/12/26 10:49:40;;;;;;;10.13;1.85;;;;;;;8.96;98.93;101146.25;5044652;28;20044;-73
2023/12/26 10:52:08;;;;;;;13.15;1.80;;;;;;;8.92;98.15;101144.88;5048891;28;20029;-73
2023/12/26 10:54:38;;;;;;;11.98;1.70;;;;;;;8.86;99.40;101145.44;5039736;28;20196;-74
2023/12/26 10:57:05;;;;;;;10.75;2.08;;;;;;;8.79;99.24;101147.75;5040357;28;20060;-73
2023/12/26 10:59:31;;;;;;;9.20;1.40;;;;;;;8.87;98.09;101147.91;5045942;28;20076;-74
2023/12/26 11:01:57;;;;;;;13.57;1.60;;;;;;;9.06;97.05;101144.47;5038902;28;20037;-73
2023/12/26 11:04:23;;;;;;;12.77;1.75;;;;;;;9.22;96.15;101153.44;5044273;28;21143;-73
2023/12/26 11:06:49;;;;;;;8.02;2.15;;;;;;;9.30;94.90;101156.16;5039293;28;20040;-74
2023/12/26 11:09:14;;;;;;;10.75;1.60;;;;;;;9.36;92.67;101153.00;5042285;28;20537;-73
2023/12/26 11:11:41;;;;;;;13.15;1.75;;;;;;;9.30;91.18;101156.94;5042336;28;20045;-73
2023/12/26 11:14:07;;;;;;;14.93;1.73;;;;;;;9.44;93.10;101176.44;5028723;28;20033;-73
2023/12/26 11:16:35;;;;;;;7.55;1.60;;;;;;;9.41;92.15;101156.00;5045877;28;20051;-74